createdAt,value
2024-05-09T00:00:26.510Z,0
2024-05-09T00:01:23.569Z,0
2024-05-09T00:02:23.865Z,0
2024-05-09T00:03:23.894Z,0
2024-05-09T00:04:24.074Z,0
2024-05-09T00:05:24.182Z,0
2024-05-09T00:06:24.299Z,0
2024-05-09T00:07:24.468Z,0
2024-05-09T00:08:24.653Z,0
2024-05-09T00:09:24.763Z,0
2024-05-09T00:10:29.039Z,0
2024-05-09T00:11:25.088Z,0
2024-05-09T00:12:25.936Z,0
2024-05-09T00:14:26.679Z,0
2024-05-09T00:15:25.592Z,0
2024-05-09T00:16:25.739Z,0
2024-05-09T00:18:26.174Z,0
2024-05-09T00:19:26.289Z,0
2024-05-09T00:20:28.834Z,0
2024-05-09T00:21:26.539Z,0
2024-05-09T00:22:26.668Z,0
2024-05-09T00:23:26.867Z,0
2024-05-09T00:24:26.989Z,0
2024-05-09T00:25:27.150Z,0
2024-05-09T00:26:27.374Z,0
2024-05-09T00:27:27.400Z,0
2024-05-09T00:28:27.531Z,0
2024-05-09T00:29:27.722Z,0
2024-05-09T00:30:31.437Z,0
2024-05-09T00:31:27.936Z,0
2024-05-09T00:32:28.225Z,0
2024-05-09T00:33:28.561Z,0
2024-05-09T00:34:28.496Z,0
2024-05-09T00:36:28.700Z,0
2024-05-09T00:37:28.846Z,0
2024-05-09T00:38:29.028Z,0
2024-05-09T00:39:29.164Z,0
2024-05-09T00:40:34.665Z,0
2024-05-09T00:41:29.473Z,0
2024-05-09T00:42:29.607Z,0
2024-05-09T00:43:29.784Z,0
2024-05-09T00:44:29.938Z,0
2024-05-09T00:45:30.089Z,0
2024-05-09T00:46:30.264Z,0
2024-05-09T00:47:30.611Z,0
2024-05-09T00:48:30.676Z,0
2024-05-09T00:49:30.751Z,0
2024-05-09T00:50:35.184Z,0
2024-05-09T00:51:30.925Z,0
2024-05-09T00:52:31.080Z,0
2024-05-09T00:53:31.401Z,0
2024-05-09T00:54:31.396Z,0
2024-05-09T00:55:31.573Z,0
2024-05-09T00:56:31.783Z,0
2024-05-09T00:57:31.846Z,0
2024-05-09T00:58:32.002Z,0
2024-05-09T00:59:32.205Z,0
2024-05-09T01:00:37.487Z,0
2024-05-09T01:01:32.494Z,0
2024-05-09T01:02:32.761Z,0
2024-05-09T01:03:33.058Z,0
2024-05-09T01:04:32.993Z,0
2024-05-09T01:05:33.164Z,0
2024-05-09T01:06:33.206Z,0
2024-05-09T01:07:33.360Z,0
2024-05-09T01:08:33.678Z,0
2024-05-09T01:09:33.676Z,0
2024-05-09T01:10:34.865Z,0
2024-05-09T01:11:34.049Z,0
2024-05-09T01:12:34.180Z,0
2024-05-09T01:13:34.290Z,0
2024-05-09T01:14:34.481Z,0
2024-05-09T01:15:34.747Z,0
2024-05-09T01:16:34.724Z,0
2024-05-09T01:17:34.975Z,0
2024-05-09T01:18:35.156Z,0
2024-05-09T01:19:35.167Z,0
2024-05-09T01:20:39.835Z,0
2024-05-09T01:21:35.440Z,0
2024-05-09T01:22:35.584Z,0
2024-05-09T01:23:35.761Z,0
2024-05-09T01:24:35.892Z,0
2024-05-09T01:25:36.059Z,0
2024-05-09T01:26:36.232Z,0
2024-05-09T01:27:36.344Z,0
2024-05-09T01:28:36.490Z,0
2024-05-09T01:29:36.705Z,0
2024-05-09T01:30:37.553Z,0
2024-05-09T01:32:37.173Z,0
2024-05-09T01:33:37.572Z,0
2024-05-09T01:34:37.419Z,0
2024-05-09T01:35:37.777Z,0
2024-05-09T01:36:37.714Z,0
2024-05-09T01:37:37.883Z,0
2024-05-09T01:38:38.022Z,0
2024-05-09T01:39:38.160Z,0
2024-05-09T01:40:39.521Z,0
2024-05-09T01:41:38.513Z,0
2024-05-09T01:42:38.630Z,0
2024-05-09T01:43:38.770Z,0
2024-05-09T01:44:38.933Z,0
2024-05-09T01:45:39.107Z,0
2024-05-09T01:46:39.210Z,0
2024-05-09T01:47:39.503Z,0
2024-05-09T01:48:39.580Z,0
2024-05-09T01:49:39.647Z,0
2024-05-09T01:50:41.208Z,0
2024-05-09T01:51:39.960Z,0
2024-05-09T01:52:40.092Z,0
2024-05-09T01:53:40.276Z,0
2024-05-09T01:54:40.382Z,0
2024-05-09T01:55:40.550Z,0
2024-05-09T01:56:40.729Z,0
2024-05-09T01:57:40.848Z,0
2024-05-09T01:58:41.000Z,0
2024-05-09T01:59:41.183Z,0
2024-05-09T02:00:42.134Z,0
2024-05-09T02:01:54.939Z,0
2024-05-09T02:02:41.703Z,0
2024-05-09T02:03:41.836Z,0
2024-05-09T02:04:42.005Z,0
2024-05-09T02:05:42.088Z,0
2024-05-09T02:06:42.193Z,0
2024-05-09T02:07:42.294Z,0
2024-05-09T02:08:42.453Z,0
2024-05-09T02:09:42.593Z,0
2024-05-09T02:10:42.869Z,0
2024-05-09T02:11:43.056Z,0
2024-05-09T02:12:43.058Z,0
2024-05-09T02:13:43.259Z,0
2024-05-09T02:14:43.369Z,0
2024-05-09T02:15:43.527Z,0
2024-05-09T02:16:43.684Z,0
2024-05-09T02:17:44.105Z,0
2024-05-09T02:19:44.216Z,0
2024-05-09T02:20:44.415Z,0
2024-05-09T02:21:44.449Z,0
2024-05-09T02:22:44.641Z,0
2024-05-09T02:23:44.794Z,0
2024-05-09T02:24:44.905Z,0
2024-05-09T02:25:45.062Z,0
2024-05-09T02:26:45.218Z,0
2024-05-09T02:27:45.352Z,0
2024-05-09T02:28:45.537Z,0
2024-05-09T02:29:45.657Z,0
2024-05-09T02:30:45.794Z,0
2024-05-09T02:31:46.086Z,0
2024-05-09T02:32:46.380Z,0
2024-05-09T02:33:46.404Z,0
2024-05-09T02:34:46.452Z,0
2024-05-09T02:35:46.538Z,0
2024-05-09T02:36:46.713Z,0
2024-05-09T02:37:46.812Z,0
2024-05-09T02:38:46.982Z,0
2024-05-09T02:39:47.109Z,0
2024-05-09T02:40:47.287Z,0
2024-05-09T02:41:47.419Z,2
2024-05-09T02:42:47.564Z,2
2024-05-09T02:43:47.732Z,2
2024-05-09T02:44:47.877Z,2
2024-05-09T02:45:48.030Z,2
2024-05-09T02:46:48.251Z,2
2024-05-09T02:47:48.468Z,2
2024-05-09T02:48:48.591Z,3.04
2024-05-09T02:49:48.658Z,3.04
2024-05-09T02:51:48.883Z,3.04
2024-05-09T02:52:49.103Z,4
2024-05-09T02:53:49.182Z,4
2024-05-09T02:54:49.343Z,5.04
2024-05-09T02:55:49.531Z,6
2024-05-09T02:56:49.660Z,6
2024-05-09T02:57:49.808Z,7.04
2024-05-09T02:58:50.010Z,8
2024-05-09T02:59:50.097Z,9.04
2024-05-09T03:00:50.305Z,11.04
2024-05-09T03:01:50.431Z,12
2024-05-09T03:02:50.618Z,14
2024-05-09T03:03:50.794Z,17.04
2024-05-09T03:04:50.932Z,19.04
2024-05-09T03:05:51.022Z,22
2024-05-09T03:06:51.106Z,25.04
2024-05-09T03:07:51.319Z,28
2024-05-09T03:08:51.430Z,33.04
2024-05-09T03:09:51.586Z,38
2024-05-09T03:10:51.796Z,42
2024-05-09T03:11:52.022Z,49.04
2024-05-09T03:12:52.013Z,55.04
2024-05-09T03:13:52.189Z,64
2024-05-09T03:14:52.345Z,71.04
2024-05-09T03:15:52.473Z,79.04
2024-05-09T03:16:52.663Z,92
2024-05-09T03:17:52.825Z,110
2024-05-09T03:18:53.042Z,120
2024-05-09T03:19:53.112Z,130
2024-05-09T03:20:53.240Z,150
2024-05-09T03:21:53.315Z,160
2024-05-09T03:22:56.305Z,180
2024-05-09T03:23:53.707Z,200
2024-05-09T03:24:53.788Z,220
2024-05-09T03:25:53.988Z,240
2024-05-09T03:26:54.099Z,260
2024-05-09T03:27:54.245Z,280
2024-05-09T03:28:54.446Z,300
2024-05-09T03:29:54.583Z,330.24
2024-05-09T03:30:54.694Z,350.08
2024-05-09T03:31:54.934Z,370.24
2024-05-09T03:32:55.103Z,400
2024-05-09T03:33:55.221Z,430.08
2024-05-09T03:34:55.297Z,450.24
2024-05-09T03:35:55.371Z,480
2024-05-09T03:36:55.498Z,520
2024-05-09T03:37:55.689Z,550.08
2024-05-09T03:38:55.822Z,570.24
2024-05-09T03:39:55.961Z,610.24
2024-05-09T03:40:56.142Z,630.08
2024-05-09T03:42:56.440Z,690.56
2024-05-09T03:43:56.630Z,710.4
2024-05-09T03:44:56.724Z,740.48
2024-05-09T03:45:56.860Z,770.56
2024-05-09T03:46:57.001Z,780.16
2024-05-09T03:47:57.504Z,810.24
2024-05-09T03:48:57.352Z,860.16
2024-05-09T03:49:57.501Z,930.56
2024-05-09T03:50:57.604Z,960
2024-05-09T03:51:57.729Z,980.48
2024-05-09T03:52:57.929Z,1100.16
2024-05-09T03:53:58.040Z,1200
2024-05-09T03:54:58.190Z,1300.48
2024-05-09T03:55:58.403Z,1300.48
2024-05-09T03:56:58.491Z,1200
2024-05-09T03:57:58.683Z,1600
2024-05-09T03:58:58.753Z,2501.12
2024-05-09T03:59:58.905Z,3000.32
2024-05-09T04:00:59.180Z,3100.16
2024-05-09T04:01:59.317Z,2700.8
2024-05-09T04:02:59.604Z,2400
2024-05-09T04:03:59.560Z,1701.12
2024-05-09T04:04:59.658Z,1500.16
2024-05-09T04:05:59.766Z,1600
2024-05-09T04:06:59.919Z,1701.12
2024-05-09T04:08:00.101Z,1701.12
2024-05-09T04:09:00.210Z,1800.96
2024-05-09T04:10:00.393Z,1701.12
2024-05-09T04:11:00.587Z,1701.12
2024-05-09T04:12:00.845Z,1800.96
2024-05-09T04:13:00.878Z,1800.96
2024-05-09T04:14:01.036Z,1800.96
2024-05-09T04:15:01.126Z,1900.8
2024-05-09T04:16:01.289Z,1900.8
2024-05-09T04:17:01.463Z,1900.8
2024-05-09T04:18:02.241Z,1900.8
2024-05-09T04:19:01.817Z,1900.8
2024-05-09T04:20:01.967Z,2000.64
2024-05-09T04:21:02.254Z,2000.64
2024-05-09T04:22:02.176Z,2000.64
2024-05-09T04:23:02.393Z,2200.32
2024-05-09T04:24:02.489Z,2100.48
2024-05-09T04:25:02.639Z,2100.48
2024-05-09T04:26:02.832Z,2100.48
2024-05-09T04:27:02.947Z,2200.32
2024-05-09T04:28:03.112Z,2300.16
2024-05-09T04:29:03.303Z,2400
2024-05-09T04:30:03.687Z,2400
2024-05-09T04:31:03.554Z,2501.12
2024-05-09T04:32:03.772Z,2600.96
2024-05-09T04:33:03.978Z,2600.96
2024-05-09T04:34:04.158Z,2600.96
2024-05-09T04:35:04.171Z,2600.96
2024-05-09T04:37:04.495Z,2800.64
2024-05-09T04:38:04.707Z,2800.64
2024-05-09T04:39:04.751Z,2800.64
2024-05-09T04:40:06.941Z,2800.64
2024-05-09T04:41:05.069Z,2900.48
2024-05-09T04:42:05.237Z,2900.48
2024-05-09T04:43:05.787Z,2900.48
2024-05-09T04:44:05.553Z,3000.32
2024-05-09T04:45:05.631Z,3100.16
2024-05-09T04:46:05.791Z,3200
2024-05-09T04:47:05.968Z,3402.24
2024-05-09T04:48:06.352Z,3502.08
2024-05-09T04:49:06.322Z,3601.92
2024-05-09T04:50:08.764Z,3701.76
2024-05-09T04:51:06.645Z,3801.6
2024-05-09T04:52:06.728Z,3901.44
2024-05-09T04:53:07.473Z,4001.28
2024-05-09T04:54:08.538Z,4200.96
2024-05-09T04:55:07.162Z,4300.8
2024-05-09T04:56:07.376Z,4500.48
2024-05-09T04:57:07.489Z,4600.32
2024-05-09T04:58:07.659Z,4800
2024-05-09T04:59:07.817Z,4902.4
2024-05-09T05:00:14.281Z,5002.24
2024-05-09T05:01:08.188Z,5201.92
2024-05-09T05:02:08.238Z,8104.96
2024-05-09T05:03:09.058Z,5703.68
2024-05-09T05:04:08.565Z,6400
2024-05-09T05:05:08.740Z,6000.64
2024-05-09T05:06:08.855Z,6103.04
2024-05-09T05:07:08.954Z,6200.32
2024-05-09T05:08:09.243Z,6302.72
2024-05-09T05:09:09.279Z,6400
2024-05-09T05:10:11.902Z,6604.8
2024-05-09T05:11:09.606Z,6804.48
2024-05-09T05:12:09.841Z,8601.6
2024-05-09T05:13:09.894Z,6702.08
2024-05-09T05:14:10.057Z,6702.08
2024-05-09T05:15:10.184Z,6702.08
2024-05-09T05:16:10.331Z,6804.48
2024-05-09T05:17:10.583Z,6901.76
2024-05-09T05:18:10.698Z,7101.44
2024-05-09T05:19:12.763Z,7301.12
2024-05-09T05:21:12.100Z,8304.64
2024-05-09T05:23:12.178Z,8104.96
2024-05-09T05:25:11.730Z,9702.399
2024-05-09T05:26:11.898Z,13301.76
2024-05-09T05:27:12.005Z,14305.279
2024-05-09T05:28:12.195Z,11202.56
2024-05-09T05:29:12.446Z,10905.6
2024-05-09T05:31:12.611Z,18800.64
2024-05-09T05:32:12.883Z,17807.36
2024-05-09T05:33:13.150Z,18401.28
2024-05-09T05:34:13.069Z,14202.88
2024-05-09T05:35:13.177Z,16906.24
2024-05-09T05:36:13.344Z,14704.64
2024-05-09T05:37:13.470Z,13209.6
2024-05-09T05:38:13.666Z,13404.16
2024-05-09T05:39:13.791Z,12103.68
2024-05-09T05:40:20.872Z,12503.04
2024-05-09T05:41:14.131Z,19200
2024-05-09T05:42:14.243Z,20008.96
2024-05-09T05:43:14.381Z,16609.28
2024-05-09T05:44:14.561Z,13701.12
2024-05-09T05:45:14.697Z,14704.64
2024-05-09T05:46:14.855Z,19507.2
2024-05-09T05:47:15.176Z,18401.28
2024-05-09T05:48:15.229Z,14602.239
2024-05-09T05:49:15.392Z,13404.16
2024-05-09T05:50:20.883Z,13004.8
2024-05-09T05:51:15.779Z,14510.08
2024-05-09T05:52:15.758Z,13506.56
2024-05-09T05:53:16.032Z,15902.72
2024-05-09T05:54:16.053Z,18708.48
2024-05-09T05:55:16.216Z,13506.56
2024-05-09T05:56:16.436Z,20500.48
2024-05-09T05:57:16.516Z,19507.2
2024-05-09T05:58:16.637Z,15708.159
2024-05-09T05:59:16.835Z,14202.88
2024-05-09T06:00:25.288Z,14510.08
2024-05-09T06:01:17.209Z,16609.28
2024-05-09T06:02:17.367Z,13506.56
2024-05-09T06:03:17.477Z,12503.04
2024-05-09T06:04:17.601Z,12605.439
2024-05-09T06:05:17.716Z,12800
2024-05-09T06:06:17.863Z,12902.399
2024-05-09T06:07:18.012Z,13506.56
2024-05-09T06:08:18.251Z,19906.56
2024-05-09T06:09:18.331Z,14100.479
2024-05-09T06:10:21.626Z,15400.96
2024-05-09T06:11:18.646Z,13608.96
2024-05-09T06:12:18.860Z,14305.279
2024-05-09T06:13:18.923Z,17602.56
2024-05-09T06:14:19.121Z,15503.359
2024-05-09T06:15:19.217Z,13301.76
2024-05-09T06:16:19.400Z,13506.56
2024-05-09T06:17:19.708Z,13905.92
2024-05-09T06:19:20.011Z,15800.319
2024-05-09T06:20:23.820Z,17408
2024-05-09T06:21:20.187Z,13803.52
2024-05-09T06:22:20.282Z,13506.56
2024-05-09T06:23:20.473Z,13506.56
2024-05-09T06:24:20.621Z,15708.159
2024-05-09T06:25:20.748Z,13803.52
2024-05-09T06:26:20.946Z,16404.48
2024-05-09T06:27:21.059Z,15308.8
2024-05-09T06:28:21.236Z,13301.76
2024-05-09T06:29:21.420Z,13004.8
2024-05-09T06:30:26.060Z,13004.8
2024-05-09T06:31:21.664Z,13209.6
2024-05-09T06:32:21.885Z,13209.6
2024-05-09T06:33:22.228Z,13107.199
2024-05-09T06:34:22.280Z,13107.199
2024-05-09T06:35:22.346Z,13404.16
2024-05-09T06:36:22.422Z,13107.199
2024-05-09T06:37:22.571Z,13107.199
2024-05-09T06:38:22.781Z,13107.199
2024-05-09T06:39:22.858Z,13209.6
2024-05-09T06:40:25.576Z,13107.199
2024-05-09T06:41:23.263Z,13506.56
2024-05-09T06:42:23.277Z,13301.76
2024-05-09T06:43:23.427Z,13506.56
2024-05-09T06:44:23.607Z,13803.52
2024-05-09T06:45:23.753Z,14100.479
2024-05-09T06:46:23.900Z,14305.279
2024-05-09T06:47:24.314Z,14202.88
2024-05-09T06:48:24.360Z,14305.279
2024-05-09T06:49:24.488Z,14510.08
2024-05-09T06:50:27.885Z,14909.439
2024-05-09T06:51:24.639Z,15503.359
2024-05-09T06:52:24.767Z,16005.12
2024-05-09T06:53:24.990Z,15800.319
2024-05-09T06:54:25.059Z,16005.12
2024-05-09T06:55:25.230Z,15206.399
2024-05-09T06:56:25.375Z,17408
2024-05-09T06:57:25.456Z,17100.8
2024-05-09T06:58:25.622Z,15902.72
2024-05-09T06:59:25.819Z,17602.56
2024-05-09T07:00:30.238Z,15800.319
2024-05-09T07:01:26.089Z,16005.12
2024-05-09T07:02:26.239Z,19609.6
2024-05-09T07:03:26.479Z,19609.6
2024-05-09T07:04:26.754Z,24002.56
2024-05-09T07:05:26.805Z,17100.8
2024-05-09T07:06:26.862Z,15400.96
2024-05-09T07:07:26.971Z,15800.319
2024-05-09T07:08:27.143Z,14510.08
2024-05-09T07:09:27.267Z,13506.56
2024-05-09T07:10:29.333Z,13905.92
2024-05-09T07:11:27.652Z,13608.96
2024-05-09T07:12:27.801Z,13404.16
2024-05-09T07:13:27.903Z,19701.76
2024-05-09T07:14:28.059Z,14305.279
2024-05-09T07:15:28.190Z,18503.68
2024-05-09T07:16:28.341Z,14100.479
2024-05-09T07:17:28.570Z,13608.96
2024-05-09T07:19:28.856Z,19107.84
2024-05-09T07:20:33.705Z,12902.399
2024-05-09T07:21:29.095Z,20500.48
2024-05-09T07:22:29.243Z,20500.48
2024-05-09T07:23:29.453Z,19507.2
2024-05-09T07:24:29.576Z,20008.96
2024-05-09T07:25:30.001Z,19507.2
2024-05-09T07:26:29.876Z,17909.76
2024-05-09T07:27:30.002Z,18800.64
2024-05-09T07:28:30.156Z,17305.6
2024-05-09T07:29:30.366Z,18800.64
2024-05-09T07:30:32.988Z,21012.48
2024-05-09T07:31:30.621Z,21012.48
2024-05-09T07:32:30.882Z,19107.84
2024-05-09T07:33:31.000Z,20500.48
2024-05-09T07:34:31.176Z,17008.64
2024-05-09T07:35:31.546Z,16803.84
2024-05-09T07:36:31.436Z,14704.64
2024-05-09T07:37:31.520Z,19701.76
2024-05-09T07:38:31.799Z,15308.8
2024-05-09T07:39:31.837Z,18309.12
2024-05-09T07:40:34.994Z,15001.6
2024-05-09T07:41:32.239Z,20500.48
2024-05-09T07:42:32.285Z,17203.2
2024-05-09T07:43:32.450Z,16803.84
2024-05-09T07:44:32.663Z,18309.12
2024-05-09T07:45:43.229Z,19200
2024-05-09T07:51:31.724Z,18800.64
2024-05-09T07:53:38.032Z,18708.48
2024-05-09T07:54:34.119Z,18401.28
2024-05-09T07:55:34.317Z,15206.399
2024-05-09T07:56:34.535Z,15308.8
2024-05-09T07:57:34.449Z,17500.16
2024-05-09T07:58:34.509Z,12902.399
2024-05-09T07:59:37.608Z,15104
2024-05-09T08:00:35.376Z,16302.08
2024-05-09T08:02:35.746Z,18401.28
2024-05-09T08:04:35.996Z,18800.64
2024-05-09T08:06:36.417Z,18708.48
2024-05-09T08:08:36.436Z,14807.04
2024-05-09T08:09:38.358Z,20008.96
2024-05-09T08:11:37.088Z,22016
2024-05-09T08:13:36.782Z,13506.56
2024-05-09T08:14:37.731Z,15800.319
2024-05-09T08:15:37.619Z,14100.479
2024-05-09T08:17:37.902Z,15400.96
2024-05-09T08:19:38.267Z,20500.48
2024-05-09T08:21:38.536Z,15104
2024-05-09T08:22:38.442Z,14807.04
2024-05-09T08:23:38.644Z,20500.48
2024-05-09T08:24:38.960Z,13301.76
2024-05-09T08:26:38.987Z,18001.92
2024-05-09T08:28:39.557Z,16302.08
2024-05-09T08:29:39.723Z,18309.12
2024-05-09T08:30:40.018Z,17500.16
2024-05-09T08:32:40.181Z,18001.92
2024-05-09T08:34:40.377Z,18001.92
2024-05-09T08:36:40.613Z,17909.76
2024-05-09T08:37:41.099Z,18104.32
2024-05-09T08:38:40.412Z,18104.32
2024-05-09T08:39:41.702Z,18206.72
2024-05-09T08:41:41.326Z,18001.92
2024-05-09T08:42:41.442Z,18001.92
2024-05-09T08:43:43.017Z,18206.72
2024-05-09T08:45:42.569Z,18309.12
2024-05-09T08:47:43.104Z,18206.72
2024-05-09T08:49:43.285Z,16701.44
2024-05-09T08:51:42.475Z,17807.36
2024-05-09T08:52:42.574Z,18503.68
2024-05-09T08:53:42.744Z,18708.48
2024-05-09T08:54:42.942Z,18708.48
2024-05-09T08:55:43.824Z,18800.64
2024-05-09T08:56:43.228Z,18903.04
2024-05-09T08:57:43.414Z,19107.84
2024-05-09T08:58:43.568Z,19302.4
2024-05-09T08:59:43.720Z,19302.4
2024-05-09T09:00:44.037Z,19507.2
2024-05-09T09:01:44.092Z,19701.76
2024-05-09T09:02:44.394Z,19804.16
2024-05-09T09:03:44.463Z,19804.16
2024-05-09T09:04:44.494Z,19804.16
2024-05-09T09:05:44.679Z,19906.56
2024-05-09T09:06:44.807Z,17602.56
2024-05-09T09:07:44.880Z,20500.48
2024-05-09T09:08:45.057Z,21012.48
2024-05-09T09:09:45.227Z,21012.48
2024-05-09T09:10:45.521Z,12605.439
2024-05-09T09:11:45.510Z,22016
2024-05-09T09:12:45.680Z,22016
2024-05-09T09:13:45.772Z,21504
2024-05-09T09:14:45.928Z,21504
2024-05-09T09:15:46.160Z,21504
2024-05-09T09:16:46.240Z,22016
2024-05-09T09:17:46.461Z,22016
2024-05-09T09:18:46.735Z,22507.52
2024-05-09T09:19:46.734Z,22507.52
2024-05-09T09:20:46.913Z,23019.52
2024-05-09T09:21:47.040Z,23019.52
2024-05-09T09:22:47.149Z,23019.52
2024-05-09T09:23:47.266Z,23511.04
2024-05-09T09:24:47.420Z,23511.04
2024-05-09T09:25:47.554Z,24002.56
2024-05-09T09:26:47.692Z,24002.56
2024-05-09T09:27:47.868Z,24002.56
2024-05-09T09:28:47.997Z,24002.56
2024-05-09T09:29:48.160Z,24002.56
2024-05-09T09:30:48.347Z,12001.279
2024-05-09T09:31:48.459Z,13701.12
2024-05-09T09:32:48.705Z,11806.72
2024-05-09T09:33:48.967Z,11909.12
2024-05-09T09:34:48.971Z,12206.08
2024-05-09T09:35:49.066Z,11909.12
2024-05-09T09:36:49.222Z,12707.84
2024-05-09T09:37:49.348Z,12902.399
2024-05-09T09:38:49.484Z,20500.48
2024-05-09T09:39:49.670Z,17305.6
2024-05-09T09:40:50.068Z,24002.56
2024-05-09T09:41:49.878Z,24002.56
2024-05-09T09:42:50.619Z,23511.04
2024-05-09T09:44:57.770Z,23019.52
2024-05-09T09:46:51.534Z,22507.52
2024-05-09T09:48:51.591Z,22507.52
2024-05-09T09:50:51.302Z,22507.52
2024-05-09T09:51:51.457Z,22016
2024-05-09T09:52:51.561Z,22507.52
2024-05-09T09:53:51.710Z,22016
2024-05-09T09:54:51.902Z,22016
2024-05-09T09:55:52.025Z,22016
2024-05-09T09:56:52.158Z,22016
2024-05-09T09:57:52.424Z,22016
2024-05-09T09:58:52.460Z,22507.52
2024-05-09T09:59:52.610Z,19005.44
2024-05-09T10:00:52.889Z,23019.52
2024-05-09T10:01:53.104Z,23019.52
2024-05-09T10:02:53.093Z,23511.04
2024-05-09T10:03:53.366Z,23511.04
2024-05-09T10:04:53.553Z,23511.04
2024-05-09T10:05:53.553Z,23511.04
2024-05-09T10:06:53.733Z,24002.56
2024-05-09T10:07:53.766Z,20500.48
2024-05-09T10:08:53.943Z,13905.92
2024-05-09T10:09:54.128Z,22507.52
2024-05-09T10:10:54.430Z,18001.92
2024-05-09T10:11:59.482Z,23019.52
2024-05-09T10:12:54.628Z,23019.52
2024-05-09T10:14:54.832Z,23019.52
2024-05-09T10:15:55.022Z,21012.48
2024-05-09T10:16:55.126Z,12605.439
2024-05-09T10:17:55.391Z,15708.159
2024-05-09T10:18:55.551Z,15400.96
2024-05-09T10:19:55.629Z,23511.04
2024-05-09T10:20:55.759Z,23511.04
2024-05-09T10:21:55.917Z,10905.6
2024-05-09T10:22:56.058Z,15605.76
2024-05-09T10:23:56.218Z,10700.8
2024-05-09T10:24:56.399Z,10403.84
2024-05-09T10:25:56.506Z,10506.24
2024-05-09T10:26:56.670Z,10803.2
2024-05-09T10:27:56.875Z,10905.6
2024-05-09T10:28:56.973Z,10905.6
2024-05-09T10:29:57.154Z,10803.2
2024-05-09T10:30:57.250Z,10905.6
2024-05-09T10:31:57.378Z,11806.72
2024-05-09T10:32:57.684Z,12503.04
2024-05-09T10:33:57.850Z,23019.52
2024-05-09T10:34:57.866Z,21504
2024-05-09T10:35:57.979Z,24002.56
2024-05-09T10:36:58.126Z,14807.04
2024-05-09T10:37:58.260Z,17203.2
2024-05-09T10:38:58.429Z,24002.56
2024-05-09T10:39:58.609Z,20500.48
2024-05-09T10:40:58.741Z,23511.04
2024-05-09T10:41:58.896Z,18606.08
2024-05-09T10:43:00.065Z,22507.52
2024-05-09T10:43:59.200Z,22507.52
2024-05-09T10:44:59.349Z,23019.52
2024-05-09T10:45:59.496Z,23019.52
2024-05-09T10:46:59.664Z,22507.52
2024-05-09T10:47:59.987Z,22507.52
2024-05-09T10:49:02.404Z,22507.52
2024-05-09T10:50:00.160Z,22507.52
2024-05-09T10:51:00.210Z,22507.52
2024-05-09T10:52:00.385Z,22016
2024-05-09T10:53:00.559Z,22016
2024-05-09T10:54:00.706Z,22016
2024-05-09T10:55:01.634Z,22016
2024-05-09T10:56:01.001Z,21504
2024-05-09T10:57:01.152Z,21012.48
2024-05-09T10:58:01.330Z,12800
2024-05-09T10:59:01.455Z,12206.08
2024-05-09T11:00:01.637Z,20008.96
2024-05-09T11:01:04.473Z,20500.48
2024-05-09T11:02:01.946Z,18401.28
2024-05-09T11:03:02.085Z,7700.48
2024-05-09T11:04:02.383Z,7500.8
2024-05-09T11:05:02.454Z,19404.8
2024-05-09T11:06:02.517Z,19507.2
2024-05-09T11:07:05.236Z,19107.84
2024-05-09T11:08:02.827Z,19005.44
2024-05-09T11:09:02.981Z,19005.44
2024-05-09T11:10:03.435Z,19005.44
2024-05-09T11:11:03.310Z,19005.44
2024-05-09T11:12:03.429Z,19005.44
2024-05-09T11:13:03.620Z,18800.64
2024-05-09T11:14:03.692Z,18800.64
2024-05-09T11:15:03.856Z,18800.64
2024-05-09T11:16:04.046Z,18708.48
2024-05-09T11:17:04.172Z,18800.64
2024-05-09T11:18:04.353Z,18903.04
2024-05-09T11:19:04.597Z,19005.44
2024-05-09T11:20:08.026Z,19005.44
2024-05-09T11:21:04.739Z,19005.44
2024-05-09T11:22:04.955Z,19005.44
2024-05-09T11:23:05.066Z,19609.6
2024-05-09T11:24:07.277Z,19507.2
2024-05-09T11:25:05.388Z,19507.2
2024-05-09T11:26:05.504Z,19200
2024-05-09T11:27:05.654Z,19404.8
2024-05-09T11:28:05.807Z,19906.56
2024-05-09T11:29:05.930Z,19804.16
2024-05-09T11:30:09.147Z,20008.96
2024-05-09T11:31:06.264Z,20008.96
2024-05-09T11:32:06.401Z,19302.4
2024-05-09T11:33:06.505Z,18503.68
2024-05-09T11:34:06.617Z,18001.92
2024-05-09T11:35:06.764Z,18206.72
2024-05-09T11:36:06.942Z,18206.72
2024-05-09T11:37:07.100Z,18606.08
2024-05-09T11:38:07.222Z,18800.64
2024-05-09T11:39:07.376Z,19302.4
2024-05-09T11:40:11.702Z,20500.48
2024-05-09T11:41:07.691Z,21012.48
2024-05-09T11:42:07.885Z,21012.48
2024-05-09T11:43:07.961Z,21012.48
2024-05-09T11:44:08.094Z,21012.48
2024-05-09T11:45:08.248Z,19005.44
2024-05-09T11:46:08.447Z,16803.84
2024-05-09T11:47:08.568Z,20500.48
2024-05-09T11:48:08.723Z,11304.96
2024-05-09T11:49:08.863Z,12308.479
2024-05-09T11:50:12.899Z,10506.24
2024-05-09T11:51:09.123Z,9103.359
2024-05-09T11:52:09.337Z,8304.64
2024-05-09T11:53:09.438Z,8401.92
2024-05-09T11:54:09.535Z,18606.08
2024-05-09T11:55:09.755Z,19005.44
2024-05-09T11:56:09.809Z,17305.6
2024-05-09T11:57:09.944Z,12902.399
2024-05-09T11:58:10.247Z,14909.439
2024-05-09T11:59:10.271Z,18001.92
2024-05-09T12:00:14.837Z,18309.12
2024-05-09T12:01:10.642Z,18104.32
2024-05-09T12:02:10.869Z,18104.32
2024-05-09T12:03:10.830Z,18309.12
2024-05-09T12:04:11.150Z,18401.28
2024-05-09T12:05:11.217Z,18708.48
2024-05-09T12:06:11.326Z,18708.48
2024-05-09T12:07:12.839Z,18800.64
2024-05-09T12:08:11.570Z,18708.48
2024-05-09T12:09:11.747Z,18606.08
2024-05-09T12:10:14.096Z,18503.68
2024-05-09T12:11:12.091Z,19302.4
2024-05-09T12:12:12.197Z,19507.2
2024-05-09T12:13:12.360Z,9000.96
2024-05-09T12:14:12.493Z,16609.28
2024-05-09T12:15:12.663Z,7603.2
2024-05-09T12:16:12.899Z,7203.84
2024-05-09T12:17:13.011Z,7403.52
2024-05-09T12:18:13.136Z,7500.8
2024-05-09T12:19:13.289Z,6901.76
2024-05-09T12:20:17.459Z,6901.76
2024-05-09T12:21:13.545Z,8202.24
2024-05-09T12:22:13.781Z,17602.56
2024-05-09T12:23:13.854Z,17602.56
2024-05-09T12:24:16.941Z,17408
2024-05-09T12:25:14.337Z,17602.56
2024-05-09T12:26:14.309Z,17305.6
2024-05-09T12:27:14.469Z,17305.6
2024-05-09T12:28:14.674Z,17408
2024-05-09T12:29:14.772Z,17408
2024-05-09T12:30:17.284Z,17408
2024-05-09T12:31:15.093Z,17500.16
2024-05-09T12:32:15.264Z,17500.16
2024-05-09T12:33:15.454Z,17408
2024-05-09T12:34:15.618Z,17305.6
2024-05-09T12:35:15.742Z,17408
2024-05-09T12:36:15.815Z,17408
2024-05-09T12:37:16.036Z,10803.2
2024-05-09T12:38:16.155Z,7203.84
2024-05-09T12:39:16.271Z,7301.12
2024-05-09T12:40:22.427Z,17100.8
2024-05-09T12:41:16.622Z,13404.16
2024-05-09T12:42:25.841Z,8202.24
2024-05-09T12:43:16.975Z,7403.52
2024-05-09T12:44:17.050Z,8304.64
2024-05-09T12:45:17.197Z,18001.92
2024-05-09T12:46:18.092Z,18309.12
2024-05-09T12:48:18.509Z,18606.08
2024-05-09T12:50:22.210Z,18206.72
2024-05-09T12:51:18.096Z,18104.32
2024-05-09T12:52:18.253Z,18104.32
2024-05-09T12:53:18.414Z,18309.12
2024-05-09T12:54:18.562Z,18401.28
2024-05-09T12:55:18.704Z,18401.28
2024-05-09T12:56:18.868Z,18206.72
2024-05-09T12:57:19.011Z,18001.92
2024-05-09T12:58:19.392Z,17807.36
2024-05-09T12:59:19.364Z,17807.36
2024-05-09T13:00:23.156Z,17807.36
2024-05-09T13:01:19.663Z,17909.76
2024-05-09T13:02:19.920Z,18001.92
2024-05-09T13:03:20.190Z,17807.36
2024-05-09T13:04:20.204Z,17602.56
2024-05-09T13:05:20.348Z,17408
2024-05-09T13:06:20.309Z,17408
2024-05-09T13:07:20.527Z,17602.56
2024-05-09T13:08:20.591Z,18001.92
2024-05-09T13:09:20.727Z,18309.12
2024-05-09T13:11:22.280Z,17807.36
2024-05-09T13:13:22.513Z,16107.52
2024-05-09T13:15:21.646Z,16701.44
2024-05-09T13:16:21.840Z,16906.24
2024-05-09T13:17:22.071Z,16701.44
2024-05-09T13:18:22.113Z,16005.12
2024-05-09T13:19:22.294Z,16005.12
2024-05-09T13:20:26.376Z,16005.12
2024-05-09T13:21:22.462Z,15902.72
2024-05-09T13:22:22.608Z,15800.319
2024-05-09T13:23:22.759Z,15708.159
2024-05-09T13:24:22.882Z,15605.76